createdAt,value
2019-05-17T00:00:18.810Z,13.47
2019-05-17T00:02:47.318Z,15.10
2019-05-17T00:05:17.788Z,13.18
2019-05-17T00:07:47.470Z,13.63
2019-05-17T00:10:17.385Z,14.63
2019-05-17T00:12:47.121Z,13.98
2019-05-17T00:15:16.928Z,14.43
2019-05-17T00:17:46.962Z,14.53
2019-05-17T00:20:17.430Z,14.03
2019-05-17T00:22:47.107Z,15.07
2019-05-17T00:25:17.609Z,13.75
2019-05-17T00:27:47.373Z,14.23
2019-05-17T00:30:17.766Z,13.55
2019-05-17T00:32:47.617Z,13.93
2019-05-17T00:35:17.791Z,15.40
2019-05-17T00:37:46.717Z,13.90
2019-05-17T00:40:16.687Z,15.57
2019-05-17T00:42:46.641Z,14.67
2019-05-17T00:45:17.293Z,15.03
2019-05-17T00:47:46.873Z,17.37
2019-05-17T00:50:16.984Z,15.27
2019-05-17T00:52:47.550Z,15.10
2019-05-17T00:55:17.555Z,13.90
2019-05-17T00:57:47.496Z,14.03
2019-05-17T01:00:17.341Z,15.40
2019-05-17T01:02:46.776Z,14.00
2019-05-17T01:05:17.196Z,14.50
2019-05-17T01:07:47.031Z,14.60
2019-05-17T01:10:16.616Z,14.37
2019-05-17T01:12:45.269Z,12.70
2019-05-17T01:15:16.576Z,16.20
2019-05-17T01:17:47.104Z,14.90
2019-05-17T01:20:17.144Z,13.90
2019-05-17T01:22:47.489Z,14.63
2019-05-17T01:25:17.119Z,14.30
2019-05-17T01:27:47.505Z,14.60
2019-05-17T01:30:17.558Z,13.73
2019-05-17T01:32:46.557Z,14.27
2019-05-17T01:35:16.828Z,13.47
2019-05-17T01:37:47.469Z,14.13
2019-05-17T01:40:17.591Z,15.20
2019-05-17T01:42:46.679Z,17.67
2019-05-17T01:45:16.691Z,14.93
2019-05-17T01:47:47.534Z,14.00
2019-05-17T01:50:17.497Z,15.43
2019-05-17T01:52:46.397Z,15.57
2019-05-17T01:55:17.204Z,14.77
2019-05-17T01:57:47.393Z,15.37
2019-05-17T02:00:17.546Z,13.37
2019-05-17T02:02:53.701Z,13.33
2019-05-17T02:05:22.243Z,15.97
2019-05-17T02:07:50.818Z,14.87
2019-05-17T02:10:19.637Z,15.00
2019-05-17T02:12:49.091Z,14.13
2019-05-17T02:15:18.201Z,13.10
2019-05-17T02:17:47.055Z,14.33
2019-05-17T02:20:17.074Z,14.57
2019-05-17T02:22:47.461Z,15.13
2019-05-17T02:25:17.772Z,16.90
2019-05-17T02:27:46.276Z,14.30
2019-05-17T02:30:15.501Z,14.07
2019-05-17T02:32:44.970Z,15.47
2019-05-17T02:35:15.090Z,14.43
2019-05-17T02:37:44.005Z,14.23
2019-05-17T02:40:14.449Z,14.80
2019-05-17T02:42:43.743Z,14.50
2019-05-17T02:45:13.435Z,15.50
2019-05-17T02:47:43.729Z,13.80
2019-05-17T02:50:13.353Z,16.07
2019-05-17T02:52:43.797Z,13.43
2019-05-17T02:55:13.096Z,17.17
2019-05-17T02:57:43.242Z,15.50
2019-05-17T03:00:13.639Z,15.97
2019-05-17T03:02:43.451Z,13.80
2019-05-17T03:05:13.138Z,13.77
2019-05-17T03:07:44.096Z,15.73
2019-05-17T03:10:22.767Z,15.50
2019-05-17T03:12:44.421Z,15.07
2019-05-17T03:15:13.315Z,19.07
2019-05-17T03:17:43.404Z,17.53
2019-05-17T03:20:13.730Z,17.93
2019-05-17T03:22:43.956Z,17.90
2019-05-17T03:25:13.936Z,18.73
2019-05-17T03:27:43.250Z,18.90
2019-05-17T03:30:17.161Z,20.87
2019-05-17T03:32:47.888Z,19.43
2019-05-17T03:35:17.284Z,23.53
2019-05-17T03:37:44.837Z,22.37
2019-05-17T03:40:34.787Z,22.07
2019-05-17T03:42:44.541Z,25.33
2019-05-17T03:45:13.892Z,24.13
2019-05-17T03:47:44.621Z,22.37
2019-05-17T03:50:13.809Z,23.90
2019-05-17T03:52:44.442Z,24.03
2019-05-17T03:55:13.593Z,22.27
2019-05-17T03:57:44.014Z,21.00
2019-05-17T04:00:13.472Z,21.33
2019-05-17T04:02:44.532Z,19.42
2019-05-17T04:05:13.038Z,20.27
2019-05-17T04:07:43.418Z,18.75
2019-05-17T04:10:15.040Z,17.97
2019-05-17T04:12:44.181Z,20.27
2019-05-17T04:15:14.675Z,20.40
2019-05-17T04:17:44.258Z,19.00
2019-05-17T04:20:13.990Z,19.07
2019-05-17T04:22:44.201Z,19.90
2019-05-17T04:25:13.843Z,19.27
2019-05-17T04:27:43.811Z,20.87
2019-05-17T04:30:13.112Z,20.57
2019-05-17T04:32:44.167Z,20.30
2019-05-17T04:35:13.501Z,21.30
2019-05-17T04:37:44.616Z,19.83
2019-05-17T04:40:14.073Z,20.20
2019-05-17T04:42:44.032Z,23.53
2019-05-17T04:45:13.394Z,21.53
2019-05-17T04:47:44.515Z,25.10
2019-05-17T04:50:13.490Z,26.70
2019-05-17T04:52:43.019Z,29.43
2019-05-17T04:55:13.564Z,27.60
2019-05-17T04:57:44.057Z,26.20
2019-05-17T05:00:13.511Z,26.60
2019-05-17T05:02:43.604Z,30.68
2019-05-17T05:05:13.917Z,28.90
2019-05-17T05:07:43.324Z,28.10
2019-05-17T05:10:14.007Z,30.27
2019-05-17T05:12:43.878Z,27.53
2019-05-17T05:15:12.890Z,30.70
2019-05-17T05:17:42.600Z,28.13
2019-05-17T05:20:13.267Z,31.00
2019-05-17T05:22:42.875Z,31.00
2019-05-17T05:25:12.498Z,30.63
2019-05-17T05:27:42.676Z,35.37
2019-05-17T05:30:12.167Z,31.63
2019-05-17T05:32:42.791Z,33.00
2019-05-17T05:35:12.373Z,33.85
2019-05-17T05:37:42.423Z,32.57
2019-05-17T05:40:12.620Z,33.23
2019-05-17T05:42:42.709Z,36.27
2019-05-17T05:45:12.360Z,37.63
2019-05-17T05:47:42.474Z,35.90
2019-05-17T05:50:12.697Z,41.17
2019-05-17T05:52:42.247Z,37.63
2019-05-17T05:55:12.339Z,37.50
2019-05-17T05:57:42.118Z,40.45
2019-05-17T06:00:13.443Z,40.75
2019-05-17T06:02:42.270Z,42.35
2019-05-17T06:05:14.675Z,46.40
2019-05-17T06:07:42.444Z,44.53
2019-05-17T06:10:12.933Z,45.30
2019-05-17T06:12:43.446Z,41.85
2019-05-17T06:15:12.995Z,47.47
2019-05-17T06:17:42.775Z,38.90
2019-05-17T06:20:12.282Z,39.30
2019-05-17T06:22:42.769Z,40.23
2019-05-17T06:25:14.871Z,38.87
2019-05-17T06:27:41.697Z,41.73
2019-05-17T06:30:12.587Z,42.57
2019-05-17T06:32:43.246Z,37.58
2019-05-17T06:35:12.634Z,36.73
2019-05-17T06:37:42.265Z,32.83
2019-05-17T06:40:13.104Z,36.98
2019-05-17T06:42:45.280Z,40.23
2019-05-17T06:45:13.129Z,33.58
2019-05-17T06:47:42.668Z,36.38
2019-05-17T06:50:14.333Z,34.57
2019-05-17T06:52:43.479Z,34.33
2019-05-17T06:55:13.031Z,32.13
2019-05-17T06:57:43.376Z,31.55
2019-05-17T07:00:19.750Z,33.20
2019-05-17T07:02:43.741Z,32.35
2019-05-17T07:05:14.096Z,30.40
2019-05-17T07:07:42.646Z,32.13
2019-05-17T07:10:12.267Z,32.65
2019-05-17T07:12:54.999Z,34.70
2019-05-17T07:15:11.625Z,32.55
2019-05-17T07:17:40.385Z,30.85
2019-05-17T07:20:10.317Z,30.10
2019-05-17T07:22:40.839Z,31.33
2019-05-17T07:25:10.726Z,29.42
2019-05-17T07:27:45.336Z,31.93
2019-05-17T07:30:11.103Z,34.05
2019-05-17T07:32:40.598Z,30.75
2019-05-17T07:35:10.825Z,30.15
2019-05-17T07:37:39.926Z,31.48
2019-05-17T07:40:10.847Z,26.02
2019-05-17T07:42:39.715Z,30.00
2019-05-17T07:45:10.091Z,33.67
2019-05-17T07:47:40.447Z,35.38
2019-05-17T07:50:11.497Z,35.63
2019-05-17T07:52:40.103Z,34.75
2019-05-17T07:55:10.975Z,38.60
2019-05-17T07:57:41.012Z,30.02
2019-05-17T08:00:10.488Z,25.80
2019-05-17T08:02:40.209Z,27.65
2019-05-17T08:05:10.520Z,23.25
2019-05-17T08:07:40.279Z,24.37
2019-05-17T08:10:11.048Z,23.73
2019-05-17T08:12:41.012Z,28.15
2019-05-17T08:15:11.183Z,23.30
2019-05-17T08:17:40.037Z,24.95
2019-05-17T08:20:10.342Z,22.37
2019-05-17T08:22:40.118Z,24.47
2019-05-17T08:25:10.251Z,23.10
2019-05-17T08:27:40.489Z,26.12
2019-05-17T08:30:11.940Z,22.10
2019-05-17T08:32:40.612Z,23.95
2019-05-17T08:35:11.332Z,18.57
2019-05-17T08:37:42.313Z,19.27
2019-05-17T08:40:10.782Z,21.05
2019-05-17T08:42:40.758Z,15.72
2019-05-17T08:45:09.966Z,18.10
2019-05-17T08:47:39.633Z,15.55
2019-05-17T08:50:11.255Z,13.22
2019-05-17T08:52:40.244Z,17.70
2019-05-17T08:55:09.836Z,21.33
2019-05-17T08:57:39.960Z,17.25
2019-05-17T09:00:10.692Z,16.12
2019-05-17T09:02:40.962Z,14.25
2019-05-17T09:05:10.221Z,13.50
2019-05-17T09:07:40.111Z,17.32
2019-05-17T09:10:09.925Z,18.17
2019-05-17T09:12:40.914Z,17.00
2019-05-17T09:15:10.673Z,18.30
2019-05-17T09:17:39.847Z,18.45
2019-05-17T09:20:10.581Z,16.60
2019-05-17T09:22:39.572Z,18.37
2019-05-17T09:25:13.516Z,17.10
2019-05-17T09:27:39.760Z,17.35
2019-05-17T09:30:10.707Z,19.70
2019-05-17T09:32:40.502Z,17.35
2019-05-17T09:35:09.981Z,18.35
2019-05-17T09:37:41.377Z,20.65
2019-05-17T09:40:09.658Z,18.37
2019-05-17T09:42:40.769Z,20.25
2019-05-17T09:45:09.594Z,13.50
2019-05-17T09:47:39.697Z,13.28
2019-05-17T09:50:10.006Z,11.57
2019-05-17T09:52:40.518Z,15.20
2019-05-17T09:55:09.968Z,12.25
2019-05-17T09:57:40.779Z,12.68
2019-05-17T10:00:10.159Z,9.33
2019-05-17T10:02:40.229Z,14.25
2019-05-17T10:05:10.681Z,8.75
2019-05-17T10:07:40.283Z,10.30
2019-05-17T10:10:10.515Z,8.00
2019-05-17T10:12:40.333Z,7.80
2019-05-17T10:15:10.366Z,8.10
2019-05-17T10:17:38.983Z,7.15
2019-05-17T10:20:10.499Z,8.40
2019-05-17T10:22:40.215Z,9.00
2019-05-17T10:25:09.679Z,8.53
2019-05-17T10:27:40.421Z,10.03
2019-05-17T10:30:10.563Z,8.30
2019-05-17T10:32:40.715Z,7.85
2019-05-17T10:35:10.247Z,7.58
2019-05-17T10:37:40.647Z,7.40
2019-05-17T10:40:10.740Z,7.25
2019-05-17T10:42:39.819Z,11.28
2019-05-17T10:45:10.865Z,7.08
2019-05-17T10:47:39.990Z,6.42
2019-05-17T10:50:10.889Z,7.45
2019-05-17T10:52:41.021Z,6.47
2019-05-17T10:55:10.795Z,5.87
2019-05-17T10:57:39.390Z,6.00
2019-05-17T11:00:10.075Z,6.30
2019-05-17T11:02:38.786Z,6.28
2019-05-17T11:05:07.621Z,6.40
2019-05-17T11:07:36.095Z,7.08
2019-05-17T11:10:06.111Z,6.45
2019-05-17T11:12:34.579Z,9.00
2019-05-17T11:15:11.009Z,8.60
2019-05-17T11:17:33.942Z,7.65
2019-05-17T11:20:02.536Z,9.80
2019-05-17T11:22:31.004Z,6.70
2019-05-17T11:24:59.493Z,6.70
2019-05-17T11:27:27.995Z,11.50
2019-05-17T11:29:56.448Z,5.55
2019-05-17T11:32:24.945Z,6.33
2019-05-17T11:34:53.423Z,6.87
2019-05-17T11:37:21.929Z,16.10
2019-05-17T11:39:50.401Z,7.97
2019-05-17T11:42:18.904Z,8.43
2019-05-17T11:44:47.384Z,8.00
2019-05-17T11:47:15.904Z,6.28
2019-05-17T11:49:44.377Z,7.65
2019-05-17T11:52:12.873Z,8.60
2019-05-17T11:54:41.360Z,11.05
2019-05-17T11:57:12.325Z,9.13
2019-05-17T11:59:40.126Z,7.70
2019-05-17T12:02:08.656Z,7.37
2019-05-17T12:04:37.503Z,7.53
2019-05-17T12:07:06.253Z,8.13
2019-05-17T12:09:37.803Z,7.22
2019-05-17T12:12:05.174Z,6.55
2019-05-17T12:14:34.765Z,7.28
2019-05-17T12:17:05.380Z,9.23
2019-05-17T12:19:37.263Z,7.17
2019-05-17T12:22:07.434Z,7.00
2019-05-17T12:24:36.457Z,7.35
2019-05-17T12:27:05.432Z,6.72
2019-05-17T12:29:34.340Z,7.05
2019-05-17T12:32:03.381Z,8.30
2019-05-17T12:34:31.919Z,6.45
2019-05-17T12:37:00.418Z,14.47
2019-05-17T12:39:28.901Z,6.17
2019-05-17T12:41:57.462Z,5.90
2019-05-17T12:44:26.089Z,6.40
2019-05-17T12:46:54.605Z,6.85
2019-05-17T12:49:23.109Z,6.92
2019-05-17T12:51:51.622Z,6.70
2019-05-17T12:54:20.100Z,6.67
2019-05-17T12:56:48.602Z,7.08
2019-05-17T12:59:17.151Z,7.70
2019-05-17T13:01:45.704Z,7.33
2019-05-17T13:04:14.202Z,6.97
2019-05-17T13:06:42.702Z,8.08
2019-05-17T13:09:11.250Z,6.10
2019-05-17T13:11:39.758Z,6.35
2019-05-17T13:14:08.247Z,6.85
2019-05-17T13:16:37.530Z,7.30
2019-05-17T13:19:05.997Z,7.55
2019-05-17T13:21:34.573Z,7.85
2019-05-17T13:24:03.051Z,8.60
2019-05-17T13:26:31.544Z,8.78
2019-05-17T13:29:00.021Z,8.43
2019-05-17T13:31:28.542Z,6.62
2019-05-17T13:33:57.026Z,8.03
2019-05-17T13:36:25.531Z,6.45
2019-05-17T13:38:54.015Z,6.37
2019-05-17T13:41:22.514Z,6.95
2019-05-17T13:43:50.994Z,9.75
2019-05-17T13:46:32.231Z,9.50
2019-05-17T13:48:49.851Z,7.37
2019-05-17T13:51:18.345Z,7.28
2019-05-17T13:53:46.816Z,7.05
2019-05-17T13:56:15.324Z,7.67
2019-05-17T13:58:43.801Z,8.33
2019-05-17T14:01:12.293Z,8.08
2019-05-17T14:03:40.776Z,6.80
2019-05-17T14:06:09.323Z,7.87
2019-05-17T14:08:37.756Z,8.20
2019-05-17T14:11:06.251Z,7.80
2019-05-17T14:13:34.743Z,8.75
2019-05-17T14:16:03.235Z,7.67
2019-05-17T14:18:31.705Z,7.30
2019-05-17T14:21:00.180Z,6.53
2019-05-17T14:23:30.097Z,6.45
2019-05-17T14:25:59.425Z,9.68
2019-05-17T14:28:27.904Z,7.35
2019-05-17T14:30:56.380Z,10.28
2019-05-17T14:33:24.892Z,7.03
2019-05-17T14:35:53.351Z,9.28
2019-05-17T14:38:21.857Z,7.62
2019-05-17T14:41:08.133Z,7.87
2019-05-17T14:43:20.547Z,8.68
2019-05-17T14:45:49.017Z,6.87
2019-05-17T14:48:17.516Z,6.90
2019-05-17T14:50:45.995Z,8.45
2019-05-17T14:53:14.504Z,6.90
2019-05-17T14:55:42.972Z,7.65
2019-05-17T14:58:11.484Z,9.58
2019-05-17T15:00:39.944Z,8.00
2019-05-17T15:03:08.447Z,8.95
2019-05-17T15:05:36.934Z,8.50
2019-05-17T15:08:05.437Z,8.20
2019-05-17T15:10:33.985Z,7.25
2019-05-17T15:13:02.497Z,11.30
2019-05-17T15:15:30.961Z,9.60
2019-05-17T15:17:59.710Z,9.38
2019-05-17T15:20:28.184Z,12.20
2019-05-17T15:22:56.677Z,8.03
2019-05-17T15:25:25.374Z,9.28
2019-05-17T15:27:54.175Z,8.73
2019-05-17T15:30:22.916Z,9.38
2019-05-17T15:32:51.529Z,8.50
2019-05-17T15:35:20.205Z,9.30
2019-05-17T15:37:48.967Z,9.75
2019-05-17T15:40:17.861Z,10.28
2019-05-17T15:42:46.630Z,10.75
2019-05-17T15:45:15.443Z,8.85
2019-05-17T15:47:44.159Z,9.48
2019-05-17T15:50:12.934Z,11.53
2019-05-17T15:52:41.670Z,12.07
2019-05-17T15:55:10.650Z,9.23
2019-05-17T15:57:39.400Z,8.65
2019-05-17T16:00:08.562Z,8.05
2019-05-17T16:02:37.270Z,9.68
2019-05-17T16:05:06.342Z,10.18
2019-05-17T16:07:35.098Z,10.28
2019-05-17T16:10:06.311Z,10.08
2019-05-17T16:12:34.815Z,11.65
2019-05-17T16:15:04.359Z,9.60
2019-05-17T16:17:32.864Z,10.25
2019-05-17T16:20:01.370Z,10.08
2019-05-17T16:22:29.845Z,9.98
2019-05-17T16:24:58.316Z,12.05
2019-05-17T16:27:26.828Z,13.90
2019-05-17T16:29:55.305Z,9.98
2019-05-17T16:32:23.816Z,10.45
2019-05-17T16:34:52.552Z,9.43
2019-05-17T16:37:21.120Z,10.23
2019-05-17T16:39:49.738Z,9.25
2019-05-17T16:42:18.222Z,9.13
2019-05-17T16:44:46.720Z,9.73
2019-05-17T16:47:15.198Z,12.82
2019-05-17T16:49:43.695Z,12.78
2019-05-17T16:52:12.186Z,10.82
2019-05-17T16:54:40.681Z,10.72
2019-05-17T16:57:09.162Z,13.88
2019-05-17T16:59:37.742Z,11.73
2019-05-17T17:02:06.361Z,13.15
2019-05-17T17:04:34.869Z,11.48
2019-05-17T17:07:03.348Z,14.43
2019-05-17T17:09:31.947Z,11.88
2019-05-17T17:12:00.505Z,11.73
2019-05-17T17:14:29.033Z,13.75
2019-05-17T17:16:57.512Z,13.98
2019-05-17T17:19:26.092Z,13.72
2019-05-17T17:21:54.572Z,14.07
2019-05-17T17:24:23.084Z,14.25
2019-05-17T17:26:51.590Z,16.10
2019-05-17T17:29:20.103Z,15.70
2019-05-17T17:31:48.590Z,13.98
2019-05-17T17:34:17.099Z,14.13
2019-05-17T17:36:45.584Z,16.65
2019-05-17T17:39:14.129Z,12.47
2019-05-17T17:41:42.616Z,12.88
2019-05-17T17:44:11.118Z,15.43
2019-05-17T17:46:39.603Z,13.85
2019-05-17T17:49:08.111Z,12.65
2019-05-17T17:51:36.766Z,15.48
2019-05-17T17:54:05.342Z,14.13
2019-05-17T17:56:33.890Z,13.55
2019-05-17T17:59:02.406Z,15.35
2019-05-17T18:01:30.881Z,13.18
2019-05-17T18:03:59.388Z,17.48
2019-05-17T18:06:27.896Z,14.10
2019-05-17T18:08:56.413Z,13.03
2019-05-17T18:11:24.887Z,12.98
2019-05-17T18:13:53.402Z,12.53
2019-05-17T18:16:21.877Z,12.90
2019-05-17T18:18:50.416Z,14.85
2019-05-17T18:21:18.885Z,14.43
2019-05-17T18:23:47.361Z,16.35
2019-05-17T18:26:15.895Z,13.83
2019-05-17T18:28:44.376Z,14.40
2019-05-17T18:31:12.901Z,13.72
2019-05-17T18:33:41.379Z,15.35
2019-05-17T18:36:09.888Z,13.83
2019-05-17T18:38:38.519Z,15.72
2019-05-17T18:41:07.104Z,15.32
2019-05-17T18:43:35.734Z,18.87
2019-05-17T18:46:04.394Z,20.32
2019-05-17T18:48:32.945Z,18.05
2019-05-17T18:51:01.453Z,18.30
2019-05-17T18:53:29.994Z,17.48
2019-05-17T18:55:58.583Z,17.95
2019-05-17T18:58:27.073Z,16.90
2019-05-17T19:00:55.649Z,18.57
2019-05-17T19:03:24.201Z,18.85
2019-05-17T19:05:52.778Z,21.23
2019-05-17T19:08:21.282Z,17.55
2019-05-17T19:10:49.799Z,18.62
2019-05-17T19:13:18.357Z,18.27
2019-05-17T19:15:46.863Z,17.80
2019-05-17T19:18:15.415Z,21.05
2019-05-17T19:20:43.991Z,17.30
2019-05-17T19:23:12.479Z,19.05
2019-05-17T19:25:41.018Z,18.23
2019-05-17T19:28:09.554Z,21.30
2019-05-17T19:30:38.066Z,18.90
2019-05-17T19:33:06.914Z,20.15
2019-05-17T19:35:35.420Z,23.60
2019-05-17T19:38:04.567Z,20.72
2019-05-17T19:40:33.159Z,27.27
2019-05-17T19:43:01.630Z,24.27
2019-05-17T19:45:30.140Z,22.85
2019-05-17T19:47:58.641Z,23.53
2019-05-17T19:50:27.141Z,23.92
2019-05-17T19:52:55.621Z,22.17
2019-05-17T19:55:24.133Z,22.77
2019-05-17T19:57:52.611Z,27.50
2019-05-17T20:00:22.526Z,23.77
2019-05-17T20:02:51.000Z,25.37
2019-05-17T20:05:19.579Z,22.22
2019-05-17T20:07:48.059Z,22.93
2019-05-17T20:10:17.714Z,20.15
2019-05-17T20:12:46.265Z,20.85
2019-05-17T20:15:17.812Z,19.82
2019-05-17T20:17:45.208Z,19.92
2019-05-17T20:20:14.027Z,20.97
2019-05-17T20:22:42.532Z,20.13
2019-05-17T20:25:11.347Z,25.08
2019-05-17T20:27:39.930Z,25.20
2019-05-17T20:30:09.445Z,23.77
2019-05-17T20:32:38.062Z,25.53
2019-05-17T20:35:07.779Z,28.03
2019-05-17T20:37:36.289Z,26.60
2019-05-17T20:40:06.937Z,25.03
2019-05-17T20:42:35.444Z,25.63
2019-05-17T20:45:08.012Z,28.07
2019-05-17T20:47:36.521Z,26.30
2019-05-17T20:50:08.865Z,25.25
2019-05-17T20:52:37.369Z,25.20
2019-05-17T20:55:06.982Z,25.13
2019-05-17T20:57:35.486Z,25.83
2019-05-17T21:00:05.959Z,28.73
2019-05-17T21:02:34.498Z,25.00
2019-05-17T21:05:03.102Z,24.03
2019-05-17T21:07:31.605Z,25.47
2019-05-17T21:10:00.089Z,24.10
2019-05-17T21:12:28.596Z,27.25
2019-05-17T21:14:57.084Z,30.17
2019-05-17T21:17:25.579Z,30.13
2019-05-17T21:19:54.064Z,30.43
2019-05-17T21:22:22.565Z,28.47
2019-05-17T21:24:51.043Z,32.20
2019-05-17T21:27:19.540Z,28.93
2019-05-17T21:29:48.017Z,33.33
2019-05-17T21:32:16.531Z,31.97
2019-05-17T21:34:45.024Z,28.10
2019-05-17T21:37:13.530Z,30.27
2019-05-17T21:39:42.193Z,30.73
2019-05-17T21:42:11.510Z,27.53
2019-05-17T21:44:40.038Z,27.77
2019-05-17T21:47:08.646Z,29.73
2019-05-17T21:49:37.142Z,29.07
2019-05-17T21:52:06.113Z,28.07
2019-05-17T21:54:34.594Z,26.20
2019-05-17T21:57:03.108Z,26.93
2019-05-17T21:59:31.652Z,24.40
2019-05-17T22:02:00.699Z,27.23
2019-05-17T22:04:29.185Z,24.30
2019-05-17T22:06:57.694Z,23.77
2019-05-17T22:09:26.172Z,26.23
2019-05-17T22:11:59.032Z,22.07
2019-05-17T22:14:27.515Z,23.10
2019-05-17T22:16:56.024Z,21.30
2019-05-17T22:19:24.509Z,16.80
2019-05-17T22:21:52.987Z,14.63
2019-05-17T22:24:21.493Z,11.40
2019-05-17T22:26:49.976Z,10.20
2019-05-17T22:29:18.484Z,19.97
2019-05-17T22:31:46.963Z,24.73
2019-05-17T22:34:15.474Z,28.93
2019-05-17T22:36:43.957Z,25.63
2019-05-17T22:39:12.464Z,25.80
2019-05-17T22:41:40.947Z,26.37
2019-05-17T22:44:09.462Z,24.87
2019-05-17T22:46:37.939Z,26.73
2019-05-17T22:49:06.473Z,27.47
2019-05-17T22:51:34.938Z,23.87
2019-05-17T22:54:03.519Z,21.33
2019-05-17T22:56:32.002Z,25.73
2019-05-17T22:59:00.508Z,25.77
2019-05-17T23:01:29.002Z,24.13
2019-05-17T23:03:57.501Z,25.00
2019-05-17T23:06:25.991Z,24.30
2019-05-17T23:08:54.519Z,23.90
2019-05-17T23:11:23.237Z,22.60
2019-05-17T23:13:51.735Z,22.33
2019-05-17T23:16:20.214Z,22.53
2019-05-17T23:19:06.020Z,25.47
2019-05-17T23:21:34.497Z,23.93
2019-05-17T23:24:03.010Z,28.83
2019-05-17T23:26:31.552Z,27.33
2019-05-17T23:29:00.166Z,30.50
2019-05-17T23:31:28.687Z,31.17
2019-05-17T23:33:57.191Z,27.43
2019-05-17T23:36:25.676Z,27.37
2019-05-17T23:38:54.173Z,28.13
2019-05-17T23:41:22.698Z,28.77
2019-05-17T23:43:51.177Z,28.40
2019-05-17T23:46:19.661Z,29.47
2019-05-17T23:48:48.169Z,29.50
2019-05-17T23:51:16.648Z,29.93
2019-05-17T23:53:45.160Z,28.87
2019-05-17T23:56:13.640Z,29.90
2019-05-17T23:58:42.154Z,27.93
